Algosea — CFN4229 — position and weather

sailwx.info

Track history (hours):
 
Tides and Currents Weather Stations Pressure Air Temp Water Temp Dewpoint Dewpoint Depression Visibility Wind Speed Wind Dir Waves Ship Positions

Algosea

Last reported at 2017-Sep-20 14:51 UTC. Time now 2017-Sep-22 06:32 UTC.
Position N 45°31' W 073°32'.

Length 144 m; draft 7.4 m.

Type: Ship (hazmat cat A). MMSI: 316006868.

Date/timePositionNaut miles runAvg speedWind from/ knotsBaromVisibWave heightAir tempDewpointWater temp
2017-Sep-20 14:51N 45°31' W 073°32'2 2.0
2017-Sep-20 14:00N 45°30' W 073°31'2 3.6
2017-Sep-20 13:30N 45°28' W 073°30'3 6.7
2017-Sep-20 13:00N 45°25' W 073°31'2 3.5
2017-Sep-20 12:30N 45°24' W 073°34'0 0.6
2017-Sep-20 12:00N 45°24' W 073°34'2 3.8
2017-Sep-20 11:29N 45°24' W 073°37'3 5.6
2017-Sep-20 11:00N 45°25' W 073°41'5 9.4
2017-Sep-20 10:30N 45°24' W 073°47'612.5
2017-Sep-20 10:00N 45°20' W 073°54'1 2.3
2017-Sep-20 09:30N 45°19' W 073°55'1 1.7
2017-Sep-20 09:00N 45°18' W 073°56'0 0.8
2017-Sep-20 08:30N 45°18' W 073°56'2 4.1
2017-Sep-20 08:00N 45°16' W 073°57'5 9.6
2017-Sep-20 07:30N 45°13' W 074°03'5 9.7
2017-Sep-20 07:00N 45°14' W 074°10'611.8
2017-Sep-20 06:30N 45°12' W 074°18'713.0
2017-Sep-20 05:59N 45°08' W 074°25'511.0
2017-Sep-20 05:30N 45°05' W 074°31'  
Track history (hours):
 
Tides and Currents Weather Stations Pressure Air Temp Water Temp Dewpoint Dewpoint Depression Visibility Wind Speed Wind Dir Waves Ship Positions

Algosea

Last reported at 2017-Sep-20 14:51 UTC. Time now 2017-Sep-22 06:32 UTC.
Position N 45°31' W 073°32'.

Length 144 m; draft 7.4 m.

Type: Ship (hazmat cat A). MMSI: 316006868.

Date/timePositionNaut miles runAvg speedWind from/ knotsBaromVisibWave heightAir tempDewpointWater temp
2017-Sep-20 14:51N 45°31' W 073°32'2 2.0
2017-Sep-20 14:00N 45°30' W 073°31'2 3.6
2017-Sep-20 13:30N 45°28' W 073°30'3 6.7
2017-Sep-20 13:00N 45°25' W 073°31'2 3.5
2017-Sep-20 12:30N 45°24' W 073°34'0 0.6
2017-Sep-20 12:00N 45°24' W 073°34'2 3.8
2017-Sep-20 11:29N 45°24' W 073°37'3 5.6
2017-Sep-20 11:00N 45°25' W 073°41'5 9.4
2017-Sep-20 10:30N 45°24' W 073°47'612.5
2017-Sep-20 10:00N 45°20' W 073°54'1 2.3
2017-Sep-20 09:30N 45°19' W 073°55'1 1.7
2017-Sep-20 09:00N 45°18' W 073°56'0 0.8
2017-Sep-20 08:30N 45°18' W 073°56'2 4.1
2017-Sep-20 08:00N 45°16' W 073°57'5 9.6
2017-Sep-20 07:30N 45°13' W 074°03'5 9.7
2017-Sep-20 07:00N 45°14' W 074°10'611.8
2017-Sep-20 06:30N 45°12' W 074°18'713.0
2017-Sep-20 05:59N 45°08' W 074°25'511.0
2017-Sep-20 05:30N 45°05' W 074°31'  

Dump ship's entire track history